GEOFB GBYD-GOOY
Flight info
| Callsign | GEOFB |
|---|---|
| Flight time | 0h 24m |
| Altitude | 20000 |
| Route | BJ DCT DS |
| Aircraft | C750/M-SBDE3FGHRWXY/S |
Departure
| Time | 2026-04-12 16:42 |
|---|---|
| Airport | Banjul International Airport (GBYD) |
Arrival
| Time | 2026-04-12 17:06 |
|---|---|
| Airport | Léopold Sédar Senghor International Airport (GOOY) |
| Time | Latitude | Longitude | Altitude | Speed | Heading |
|---|---|---|---|---|---|
| 2026-04-12 16:36 | 13.33355 | -16.64719 | 88 ft | 0 kts | 309° |
| 2026-04-12 16:41 | 13.33401 | -16.64772 | 92 ft | 47 kts | 311° |
| 2026-04-12 16:41 | 13.33870 | -16.65338 | 179 ft | 138 kts | 307° |
| 2026-04-12 16:41 | 13.34557 | -16.66152 | 435 ft | 164 kts | 309° |
| 2026-04-12 16:42 | 13.35365 | -16.67017 | 813 ft | 175 kts | 324° |
| 2026-04-12 16:42 | 13.36599 | -16.67507 | 1254 ft | 205 kts | 342° |
| 2026-04-12 16:42 | 13.37959 | -16.68197 | 1951 ft | 231 kts | 331° |
| 2026-04-12 16:43 | 13.42368 | -16.71188 | 4785 ft | 261 kts | 329° |
| 2026-04-12 16:43 | 13.43905 | -16.72186 | 5908 ft | 263 kts | 329° |
| 2026-04-12 16:43 | 13.45457 | -16.73211 | 6935 ft | 266 kts | 328° |
| 2026-04-12 16:44 | 13.47032 | -16.74252 | 7940 ft | 273 kts | 328° |
| 2026-04-12 16:44 | 13.48644 | -16.75314 | 9037 ft | 278 kts | 328° |
| 2026-04-12 16:44 | 13.50287 | -16.76395 | 10050 ft | 283 kts | 328° |
| 2026-04-12 16:44 | 13.52001 | -16.77523 | 10560 ft | 305 kts | 328° |
| 2026-04-12 16:45 | 13.53867 | -16.78753 | 10804 ft | 333 kts | 327° |
| 2026-04-12 16:45 | 13.55883 | -16.80083 | 11200 ft | 350 kts | 327° |
| 2026-04-12 16:45 | 13.57936 | -16.81437 | 12096 ft | 351 kts | 327° |
| 2026-04-12 16:45 | 13.60008 | -16.82803 | 12822 ft | 358 kts | 327° |
| 2026-04-12 16:46 | 13.62119 | -16.84195 | 13624 ft | 361 kts | 327° |
| 2026-04-12 16:46 | 13.64240 | -16.85594 | 14330 ft | 365 kts | 327° |
| 2026-04-12 16:46 | 13.66356 | -16.86990 | 15014 ft | 368 kts | 327° |
| 2026-04-12 16:46 | 13.68526 | -16.88423 | 15689 ft | 373 kts | 327° |
| 2026-04-12 16:47 | 13.70711 | -16.89865 | 16386 ft | 377 kts | 327° |
| 2026-04-12 16:47 | 13.72915 | -16.91320 | 17113 ft | 381 kts | 326° |
| 2026-04-12 16:47 | 13.75171 | -16.92810 | 17869 ft | 385 kts | 326° |
| 2026-04-12 16:47 | 13.77436 | -16.94307 | 18556 ft | 389 kts | 326° |
| 2026-04-12 16:48 | 13.79728 | -16.95821 | 19201 ft | 394 kts | 326° |
| 2026-04-12 16:48 | 13.82024 | -16.97338 | 19792 ft | 395 kts | 325° |
| 2026-04-12 16:48 | 13.84399 | -16.98911 | 19876 ft | 417 kts | 325° |
| 2026-04-12 16:48 | 13.86869 | -17.00545 | 19885 ft | 438 kts | 326° |
| 2026-04-12 16:49 | 13.89490 | -17.02277 | 19893 ft | 457 kts | 326° |
| 2026-04-12 16:49 | 13.92191 | -17.04061 | 19894 ft | 465 kts | 326° |
| 2026-04-12 16:49 | 13.94921 | -17.05867 | 19891 ft | 468 kts | 326° |
| 2026-04-12 16:49 | 13.97672 | -17.07689 | 19886 ft | 470 kts | 326° |
| 2026-04-12 16:50 | 14.00422 | -17.09512 | 19885 ft | 469 kts | 326° |
| 2026-04-12 16:50 | 14.03062 | -17.11256 | 19875 ft | 441 kts | 326° |
| 2026-04-12 16:50 | 14.05562 | -17.12909 | 19717 ft | 410 kts | 326° |
| 2026-04-12 16:50 | 14.07861 | -17.14433 | 18804 ft | 392 kts | 326° |
| 2026-04-12 16:51 | 14.10132 | -17.15944 | 17559 ft | 386 kts | 326° |
| 2026-04-12 16:51 | 14.12366 | -17.17426 | 16329 ft | 378 kts | 326° |
| 2026-04-12 16:51 | 14.14559 | -17.18875 | 15168 ft | 369 kts | 327° |
| 2026-04-12 16:51 | 14.16704 | -17.20296 | 14050 ft | 363 kts | 327° |
| 2026-04-12 16:52 | 14.18796 | -17.21688 | 12877 ft | 354 kts | 327° |
| 2026-04-12 16:52 | 14.20846 | -17.23050 | 12107 ft | 341 kts | 327° |
| 2026-04-12 16:52 | 14.22764 | -17.24322 | 11831 ft | 314 kts | 327° |
| 2026-04-12 16:52 | 14.24521 | -17.25489 | 11619 ft | 290 kts | 327° |
| 2026-04-12 16:53 | 14.26181 | -17.26592 | 10946 ft | 287 kts | 327° |
| 2026-04-12 16:53 | 14.27857 | -17.27704 | 10271 ft | 285 kts | 327° |
| 2026-04-12 16:53 | 14.29507 | -17.28800 | 9709 ft | 278 kts | 326° |
| 2026-04-12 16:53 | 14.31133 | -17.29880 | 8940 ft | 278 kts | 326° |
| 2026-04-12 16:54 | 14.32738 | -17.30947 | 8337 ft | 272 kts | 327° |
| 2026-04-12 16:54 | 14.34337 | -17.32010 | 7584 ft | 274 kts | 327° |
| 2026-04-12 16:54 | 14.35913 | -17.33058 | 7078 ft | 265 kts | 327° |
| 2026-04-12 16:54 | 14.37466 | -17.34090 | 6385 ft | 266 kts | 328° |
| 2026-04-12 16:55 | 14.38998 | -17.35108 | 5854 ft | 258 kts | 328° |
| 2026-04-12 16:55 | 14.40511 | -17.36115 | 5107 ft | 261 kts | 328° |
| 2026-04-12 16:55 | 14.42035 | -17.37128 | 4838 ft | 256 kts | 329° |
| 2026-04-12 16:55 | 14.43533 | -17.38124 | 4526 ft | 263 kts | 329° |
| 2026-04-12 16:56 | 14.45078 | -17.39153 | 4182 ft | 265 kts | 330° |
| 2026-04-12 16:56 | 14.46614 | -17.40176 | 3832 ft | 261 kts | 329° |
| 2026-04-12 16:56 | 14.48141 | -17.41193 | 3488 ft | 261 kts | 332° |
| 2026-04-12 16:56 | 14.49651 | -17.42198 | 3148 ft | 250 kts | 331° |
| 2026-04-12 16:57 | 14.51035 | -17.43125 | 2810 ft | 226 kts | 331° |
| 2026-04-12 16:57 | 14.52315 | -17.43976 | 2514 ft | 215 kts | 332° |
| 2026-04-12 16:57 | 14.53558 | -17.44797 | 2241 ft | 214 kts | 331° |
| 2026-04-12 16:57 | 14.54898 | -17.45325 | 2111 ft | 199 kts | 355° |
| 2026-04-12 16:58 | 14.56130 | -17.45480 | 2127 ft | 161 kts | 356° |
| 2026-04-12 16:58 | 14.57249 | -17.45633 | 2138 ft | 160 kts | 358° |
| 2026-04-12 16:58 | 14.58373 | -17.45784 | 2145 ft | 163 kts | 357° |
| 2026-04-12 16:58 | 14.59496 | -17.45935 | 2146 ft | 168 kts | 356° |
| 2026-04-12 16:59 | 14.60659 | -17.46091 | 2153 ft | 165 kts | 356° |
| 2026-04-12 16:59 | 14.61801 | -17.46245 | 2152 ft | 167 kts | 358° |
| 2026-04-12 16:59 | 14.62915 | -17.46395 | 1966 ft | 163 kts | 358° |
| 2026-04-12 16:59 | 14.64048 | -17.46545 | 1759 ft | 164 kts | 358° |
| 2026-04-12 17:00 | 14.65157 | -17.46694 | 1536 ft | 162 kts | 356° |
| 2026-04-12 17:00 | 14.66284 | -17.46844 | 1340 ft | 163 kts | 355° |
| 2026-04-12 17:00 | 14.67390 | -17.46993 | 1122 ft | 151 kts | 355° |
| 2026-04-12 17:00 | 14.68324 | -17.47122 | 935 ft | 121 kts | 356° |
| 2026-04-12 17:01 | 14.69090 | -17.47224 | 765 ft | 103 kts | 352° |
| 2026-04-12 17:01 | 14.69788 | -17.47316 | 653 ft | 101 kts | 353° |
| 2026-04-12 17:01 | 14.70508 | -17.47412 | 530 ft | 112 kts | 353° |
| 2026-04-12 17:01 | 14.71280 | -17.47514 | 370 ft | 109 kts | 351° |
| 2026-04-12 17:02 | 14.72018 | -17.47614 | 237 ft | 105 kts | 350° |
| 2026-04-12 17:02 | 14.72759 | -17.47713 | 108 ft | 106 kts | 351° |
| 2026-04-12 17:02 | 14.73429 | -17.47808 | 99 ft | 103 kts | 351° |
| 2026-04-12 17:02 | 14.74144 | -17.47903 | 85 ft | 97 kts | 353° |
| 2026-04-12 17:03 | 14.74800 | -17.47989 | 87 ft | 90 kts | 352° |
| 2026-04-12 17:03 | 14.75409 | -17.48071 | 83 ft | 111 kts | 352° |
| 2026-04-12 17:03 | 14.76100 | -17.48550 | 439 ft | 139 kts | 297° |
| 2026-04-12 17:03 | 14.75695 | -17.49502 | 745 ft | 174 kts | 218° |
| 2026-04-12 17:04 | 14.74589 | -17.50048 | 1235 ft | 179 kts | 202° |
| 2026-04-12 17:04 | 14.73335 | -17.50414 | 1278 ft | 195 kts | 185° |
| 2026-04-12 17:04 | 14.72043 | -17.50221 | 963 ft | 185 kts | 146° |
| 2026-04-12 17:04 | 14.71405 | -17.49206 | 670 ft | 161 kts | 91° |
| 2026-04-12 17:05 | 14.71589 | -17.48254 | 563 ft | 121 kts | 47° |
| 2026-04-12 17:05 | 14.72214 | -17.47771 | 323 ft | 110 kts | 11° |
| 2026-04-12 17:05 | 14.72961 | -17.47742 | 111 ft | 105 kts | 350° |
| 2026-04-12 17:05 | 14.73598 | -17.47833 | 83 ft | 73 kts | 351° |
| 2026-04-12 17:06 | 14.73776 | -17.47853 | 82 ft | 0 kts | 354° |